Villa Ridge, Mississippi
Current Conditions -  °F | °C
As of 2:53 AM on Sunday 23 Nov 2014 (Local Time) from KHBG Reporting Station
Haze Haze  
Wind Chill: 60°   Ceiling: 400
Heat Index: 60°   Visibility: 1.7mi
Dew Point: 59°   Wind: 5mph
Humidity: 96%   Direction: 80°E
Pressure: 29.84"   Gusts: NA
Location:  31.0601°N, 89.4815°W
Report Text: KHBG 230853Z AUTO 08004KT 1 3/4SM BR OVC004 16/15 A2984 RMK AO2 SLP104 T01560150 56024
Loading
Personal Weather Stations






























Interactive Weather Map New forecast layout! Learn more

10-Day Weather Forecast

Advertisements
Track Severe Weather on mobile